Capitol Logistics 867


GOBD
Blaise Diagne International Airport
Dakar, SN
FACT
Cape Town International Airport
Cape Town, ZA

Activity Log

Date Flight Route Aircraft Duration
12/28/2019 CPX867 YF UR979 AD UA400 VNA UN187 ARGOL R987 ILGOL UN187 VEDRY UN185 KEBAT R987 NVV EVUKI EVUK1B B763 8h 16m
12/18/2019 CPX867 Not Available B763 6h 50m
09/29/2019 CPX767 0510N IPEKA/N0464F350 09S000E 18S010E/N0458F370 NIBEK DULGO UVBUD EVUKI EVUK1B B763 8h 21m

Route Details

Aircraft Information
Primary: Boeing 767-300BDSF
Backup: Not Available
Route Data
Distance: 3553nm
Sched. Duration: 6h 50m
Avg. Duration: 7h 62m (+113m)
Times Flown: 3
Recm'd Route: Not Available
Planned Altitude: 35,000ft
Origin Wx: GOBD 270130Z 03010KT 7000 NSC 29/13 Q1011 NOSIG
Dest. Wx: FACT 270100Z 18021KT 9999 SCT005 17/16 Q1015 NOSIG
Notes:

Financial History
Total Freight: 298,344lbs
Average Load: 99,448lbs/flt
Fuel Used: 230,968lbs
Avg. Fuel Used: 76,989lbs/flt
Fuel Expense: $170,916
Avg. Fuel Expense: $56,972
Avg. Fuel Cost: $0.74/lbs
Total Gross Income: $2,860,274
Pilot Pay: $717
Total Expenses: $309,066
Total Revenue: $2,374,742
Average Revenue: $953,424.54